Skip Navigation LinksHome page > Weather > Current weather Skip Navigation Links

Current Weather

Ben-Gurion Intl Apt, Tel Aviv, Israel

For information only: do not use for flight planning or navigation.
Latest weather
Observation time Friday, October 31, 2014 11:50 PM IST
Local time Friday, October 31, 2014 11:57 PM IST
Flight conditions Visual Meteorological Conditions
Winds
Wind direction South (170°)
Wind speed 9 mph
Visibility 6.2 mi.
Sky condition
Ceiling unlimited
Cloud layer few clouds 3,000 ft.
Temperature 64°F
Dewpoint 61°F
Altimeter 29.94 in.Hg
Derived measurements
Relative humidity 88%
Density altitude 738 ft.
Remarks
No significant changes expected in the next two hours.
METAR LLBG 312150Z 17008KT 9999 FEW030 18/16 Q1014 NOSIG RMK RERA

Settings

Location code

InnerDrive.Weather 4.0.5399.0 Release CLR 4.0.30319.34014
Copyright ©2014 Inner Drive Technology. All rights reserved. Portions Copyright ©1986-2014 David Braverman.

Find weather

Site navigation


Skip Navigation Links

Place info

Page info

PayPal - The safer, easier way to pay online!

Return home.

Copyright ©2014 Inner Drive Technology. Purveyors of fine, hand-crafted computer software. Page printed 2014-10-31T21:57:38 UTC.